createdAt,value
2024-03-02T00:00:26.788Z,8.00
2024-03-02T00:02:55.639Z,8.20
2024-03-02T00:05:25.041Z,7.13
2024-03-02T00:08:03.086Z,7.83
2024-03-02T00:10:38.538Z,7.63
2024-03-02T00:13:09.595Z,7.97
2024-03-02T00:15:49.513Z,8.10
2024-03-02T00:18:22.119Z,7.60
2024-03-02T00:20:51.187Z,7.50
2024-03-02T00:23:25.641Z,7.03
2024-03-02T00:25:56.041Z,7.60
2024-03-02T00:28:28.025Z,7.63
2024-03-02T00:31:02.357Z,7.90
2024-03-02T00:33:33.824Z,8.07
2024-03-02T00:36:02.933Z,8.13
2024-03-02T00:38:32.940Z,8.77
2024-03-02T00:41:02.271Z,8.37
2024-03-02T00:43:48.432Z,8.13
2024-03-02T00:46:21.026Z,7.90
2024-03-02T00:49:01.707Z,8.03
2024-03-02T00:51:31.607Z,7.73
2024-03-02T00:54:02.542Z,8.23
2024-03-02T00:56:31.565Z,8.87
2024-03-02T00:59:00.872Z,9.17
2024-03-02T01:01:31.688Z,8.40
2024-03-02T01:04:00.630Z,8.10
2024-03-02T01:06:29.792Z,7.83
2024-03-02T01:08:58.773Z,8.13
2024-03-02T01:11:27.612Z,7.77
2024-03-02T01:13:56.709Z,8.57
2024-03-02T01:16:25.854Z,8.53
2024-03-02T01:18:56.797Z,8.07
2024-03-02T01:21:25.785Z,7.67
2024-03-02T01:23:54.800Z,7.67
2024-03-02T01:26:23.576Z,8.20
2024-03-02T01:28:52.262Z,8.37
2024-03-02T01:31:21.862Z,7.93
2024-03-02T01:33:51.346Z,7.97
2024-03-02T01:36:24.110Z,7.70
2024-03-02T01:38:52.924Z,7.83
2024-03-02T01:41:21.719Z,6.93
2024-03-02T01:43:50.513Z,7.60
2024-03-02T01:46:22.590Z,7.80
2024-03-02T01:48:51.516Z,6.60
2024-03-02T01:51:23.205Z,7.17
2024-03-02T01:53:54.276Z,7.30
2024-03-02T01:56:23.836Z,7.27
2024-03-02T01:58:53.147Z,7.03
2024-03-02T02:01:22.415Z,7.30
2024-03-02T02:03:51.245Z,6.93
2024-03-02T02:06:23.548Z,7.23
2024-03-02T02:08:53.616Z,7.20
2024-03-02T02:11:22.842Z,6.90
2024-03-02T02:13:53.450Z,6.93
2024-03-02T02:16:23.421Z,6.83
2024-03-02T02:18:53.691Z,7.03
2024-03-02T02:21:28.872Z,6.97
2024-03-02T02:24:00.651Z,6.80
2024-03-02T02:26:29.943Z,7.10
2024-03-02T02:28:59.878Z,6.83
2024-03-02T02:31:28.397Z,7.10
2024-03-02T02:33:56.939Z,6.93
2024-03-02T02:36:28.502Z,7.53
2024-03-02T02:38:57.666Z,7.43
2024-03-02T02:41:26.356Z,7.27
2024-03-02T02:43:54.943Z,6.50
2024-03-02T02:46:23.457Z,7.47
2024-03-02T02:48:54.138Z,6.90
2024-03-02T02:51:22.772Z,7.97
2024-03-02T02:53:52.940Z,8.30
2024-03-02T02:56:21.491Z,8.30
2024-03-02T02:58:49.938Z,7.60
2024-03-02T03:01:19.375Z,7.27
2024-03-02T03:03:48.167Z,7.80
2024-03-02T03:06:16.824Z,7.13
2024-03-02T03:08:45.514Z,7.20
2024-03-02T03:11:15.682Z,8.43
2024-03-02T03:13:44.306Z,7.57
2024-03-02T03:16:12.877Z,8.80
2024-03-02T03:18:41.460Z,7.63
2024-03-02T03:21:10.039Z,8.70
2024-03-02T03:23:38.422Z,7.73
2024-03-02T03:26:06.823Z,8.43
2024-03-02T03:28:36.852Z,7.27
2024-03-02T03:31:06.002Z,7.57
2024-03-02T03:33:35.561Z,7.57
2024-03-02T03:36:04.778Z,8.43
2024-03-02T03:38:33.331Z,8.23
2024-03-02T03:41:02.994Z,8.13
2024-03-02T03:43:31.490Z,8.93
2024-03-02T03:46:01.502Z,7.83
2024-03-02T03:48:32.044Z,7.80
2024-03-02T03:51:00.850Z,7.37
2024-03-02T03:53:29.505Z,8.00
2024-03-02T03:55:58.117Z,8.00
2024-03-02T03:58:26.701Z,7.37
2024-03-02T04:00:55.436Z,7.90
2024-03-02T04:03:26.673Z,8.87
2024-03-02T04:05:55.163Z,8.83
2024-03-02T04:08:23.754Z,8.63
2024-03-02T04:10:52.616Z,8.87
2024-03-02T04:13:21.159Z,9.60
2024-03-02T04:15:49.942Z,11.10
2024-03-02T04:18:18.566Z,9.93
2024-03-02T04:20:50.349Z,9.17
2024-03-02T04:23:19.499Z,10.63
2024-03-02T04:25:48.010Z,9.53
2024-03-02T04:28:16.529Z,9.70
2024-03-02T04:30:45.135Z,9.53
2024-03-02T04:33:13.763Z,10.27
2024-03-02T04:35:42.284Z,10.13
2024-03-02T04:38:12.330Z,10.53
2024-03-02T04:40:40.801Z,10.53
2024-03-02T04:43:10.704Z,10.23
2024-03-02T04:45:41.000Z,10.73
2024-03-02T04:48:10.242Z,10.40
2024-03-02T04:50:38.788Z,10.57
2024-03-02T04:53:07.208Z,10.17
2024-03-02T04:56:21.013Z,9.63
2024-03-02T04:58:49.772Z,10.40
2024-03-02T05:01:19.026Z,10.17
2024-03-02T05:03:47.745Z,10.83
2024-03-02T05:06:16.371Z,11.47
2024-03-02T05:08:46.029Z,11.87
2024-03-02T05:11:30.070Z,10.90
2024-03-02T05:13:58.697Z,11.53
2024-03-02T05:16:27.634Z,11.67
2024-03-02T05:18:56.657Z,11.50
2024-03-02T05:21:25.234Z,11.90
2024-03-02T05:23:53.661Z,11.80
2024-03-02T05:26:23.628Z,12.20
2024-03-02T05:28:51.997Z,11.77
2024-03-02T05:31:20.417Z,12.00
2024-03-02T05:33:50.299Z,13.13
2024-03-02T05:36:19.979Z,11.73
2024-03-02T05:38:48.496Z,11.40
2024-03-02T05:41:16.987Z,10.33
2024-03-02T05:43:47.012Z,11.20
2024-03-02T05:46:15.788Z,10.80
2024-03-02T05:48:44.400Z,11.10
2024-03-02T05:51:13.078Z,10.87
2024-03-02T05:53:41.509Z,10.93
2024-03-02T05:56:09.940Z,12.00
2024-03-02T05:58:50.865Z,12.20
2024-03-02T06:01:29.608Z,11.67
2024-03-02T06:03:59.934Z,12.23
2024-03-02T06:06:28.992Z,10.30
2024-03-02T06:08:57.735Z,11.67
2024-03-02T06:11:29.256Z,11.37
2024-03-02T06:14:00.657Z,11.27
2024-03-02T06:16:31.010Z,10.13
2024-03-02T06:19:00.051Z,10.70
2024-03-02T06:21:28.867Z,11.63
2024-03-02T06:23:58.306Z,11.70
2024-03-02T06:26:27.140Z,10.90
2024-03-02T06:28:57.448Z,11.97
2024-03-02T06:31:28.804Z,12.73
2024-03-02T06:33:58.884Z,11.33
2024-03-02T06:36:30.606Z,11.60
2024-03-02T06:38:59.191Z,13.10
2024-03-02T06:41:28.483Z,12.00
2024-03-02T06:44:01.309Z,12.47
2024-03-02T06:46:30.559Z,11.93
2024-03-02T06:49:04.736Z,10.90
2024-03-02T06:51:33.765Z,11.93
2024-03-02T06:54:04.249Z,12.23
2024-03-02T06:56:44.478Z,11.30
2024-03-02T06:59:18.967Z,12.43
2024-03-02T07:01:47.958Z,11.40
2024-03-02T07:04:19.653Z,12.87
2024-03-02T07:12:12.001Z,12.27
2024-03-02T07:15:09.035Z,11.63
2024-03-02T07:17:38.405Z,11.87
2024-03-02T07:20:15.334Z,12.50
2024-03-02T07:22:46.941Z,12.50
2024-03-02T07:27:53.084Z,11.10
2024-03-02T07:30:24.627Z,12.33
2024-03-02T07:32:56.059Z,11.13
2024-03-02T07:35:28.584Z,11.23
2024-03-02T07:38:00.359Z,11.50
2024-03-02T07:40:30.188Z,11.43
2024-03-02T07:43:00.939Z,11.90
2024-03-02T07:45:30.249Z,11.40
2024-03-02T07:47:59.607Z,11.83
2024-03-02T07:50:32.511Z,11.67
2024-03-02T07:53:01.005Z,13.33
2024-03-02T07:55:29.624Z,12.20
2024-03-02T07:58:00.423Z,12.83
2024-03-02T08:00:29.857Z,11.03
2024-03-02T08:02:58.726Z,12.20
2024-03-02T08:05:28.480Z,13.13
2024-03-02T08:08:01.304Z,12.43
2024-03-02T08:10:30.078Z,12.37
2024-03-02T08:12:59.085Z,12.60
2024-03-02T08:15:27.950Z,13.50
2024-03-02T08:17:57.746Z,12.87
2024-03-02T08:20:28.795Z,11.67
2024-03-02T08:22:58.872Z,12.87
2024-03-02T08:25:29.337Z,14.07
2024-03-02T08:27:58.582Z,14.13
2024-03-02T08:30:27.217Z,14.07
2024-03-02T08:32:55.739Z,14.17
2024-03-02T08:35:24.325Z,14.50
2024-03-02T08:37:52.978Z,13.20
2024-03-02T08:40:23.134Z,13.27
2024-03-02T08:42:51.726Z,14.33
2024-03-02T08:45:21.767Z,14.53
2024-03-02T08:47:50.462Z,14.40
2024-03-02T08:50:22.044Z,13.60
2024-03-02T08:52:50.527Z,13.57
2024-03-02T08:55:18.991Z,13.93
2024-03-02T08:57:51.713Z,13.43
2024-03-02T09:00:20.474Z,14.03
2024-03-02T09:02:49.256Z,13.47
2024-03-02T09:05:19.749Z,13.97
2024-03-02T09:07:49.689Z,13.70
2024-03-02T09:10:18.368Z,13.53
2024-03-02T09:12:46.826Z,12.43
2024-03-02T09:15:18.251Z,12.20
2024-03-02T09:17:47.030Z,12.57
2024-03-02T09:20:16.043Z,11.97
2024-03-02T09:22:44.866Z,11.87
2024-03-02T09:25:13.601Z,11.23
2024-03-02T09:27:44.851Z,10.73
2024-03-02T09:30:15.067Z,8.93
2024-03-02T09:32:47.191Z,10.17
2024-03-02T09:35:16.435Z,10.87
2024-03-02T09:37:47.928Z,9.83
2024-03-02T09:40:19.516Z,13.13
2024-03-02T09:42:53.266Z,10.67
2024-03-02T09:45:25.836Z,11.30
2024-03-02T09:48:28.923Z,11.33
2024-03-02T09:50:59.113Z,11.10
2024-03-02T09:53:34.946Z,12.13
2024-03-02T09:56:06.251Z,11.60
2024-03-02T09:58:35.668Z,10.70
2024-03-02T10:01:05.910Z,10.93
2024-03-02T10:03:36.528Z,11.17
2024-03-02T10:06:25.764Z,10.23
2024-03-02T10:08:54.561Z,9.57
2024-03-02T10:11:32.260Z,10.60
2024-03-02T10:14:13.821Z,10.10
2024-03-02T10:16:43.515Z,9.17
2024-03-02T10:19:21.861Z,13.43
2024-03-02T10:21:52.943Z,9.03
2024-03-02T10:24:22.186Z,10.07
2024-03-02T10:26:53.660Z,9.47
2024-03-02T10:29:22.494Z,9.60
2024-03-02T10:31:51.251Z,9.87
2024-03-02T10:34:19.889Z,10.10
2024-03-02T10:36:48.447Z,10.30
2024-03-02T10:39:18.976Z,10.00
2024-03-02T10:41:50.143Z,10.10
2024-03-02T10:44:19.524Z,9.47
2024-03-02T10:46:52.828Z,11.13
2024-03-02T10:49:23.226Z,9.67
2024-03-02T10:51:51.887Z,9.20
2024-03-02T10:54:28.382Z,9.60
2024-03-02T10:57:00.979Z,11.60
2024-03-02T10:59:32.030Z,10.30
2024-03-02T11:02:05.343Z,10.57
2024-03-02T11:04:36.480Z,11.00
2024-03-02T11:07:07.944Z,12.23
2024-03-02T11:09:42.193Z,11.37
2024-03-02T11:12:19.426Z,12.60
2024-03-02T11:14:48.201Z,11.03
2024-03-02T11:17:21.175Z,10.77
2024-03-02T11:19:50.505Z,12.70
2024-03-02T11:22:21.549Z,10.93
2024-03-02T11:25:00.892Z,12.07
2024-03-02T11:28:04.733Z,12.10
2024-03-02T11:30:53.492Z,11.90
2024-03-02T11:33:34.687Z,13.97
2024-03-02T11:36:09.852Z,12.83
2024-03-02T11:38:42.258Z,14.23
2024-03-02T11:41:18.802Z,14.67
2024-03-02T11:43:47.619Z,15.93
2024-03-02T11:46:18.189Z,14.67
2024-03-02T11:48:48.713Z,14.97
2024-03-02T11:51:18.895Z,14.33
2024-03-02T11:53:50.163Z,14.03
2024-03-02T11:56:20.335Z,14.20
2024-03-02T11:58:53.872Z,14.37
2024-03-02T12:01:27.960Z,12.87
2024-03-02T12:03:59.130Z,13.07
2024-03-02T12:06:28.683Z,14.23
2024-03-02T12:08:59.593Z,12.90
2024-03-02T12:11:30.672Z,14.13
2024-03-02T12:14:03.369Z,14.43
2024-03-02T12:16:32.043Z,15.47
2024-03-02T12:19:00.766Z,14.17
2024-03-02T12:21:29.439Z,14.67
2024-03-02T12:23:57.904Z,14.33
2024-03-02T12:26:27.592Z,15.20
2024-03-02T12:28:57.916Z,14.77
2024-03-02T12:31:26.852Z,13.60
2024-03-02T12:33:58.125Z,14.43
2024-03-02T12:36:26.708Z,14.87
2024-03-02T12:38:56.913Z,15.30
2024-03-02T12:41:26.220Z,14.83
2024-03-02T12:43:57.755Z,13.90
2024-03-02T12:46:28.976Z,14.93
2024-03-02T12:48:57.617Z,14.40
2024-03-02T12:51:26.502Z,14.20
2024-03-02T12:57:14.426Z,13.30
2024-03-02T12:59:51.253Z,13.93
2024-03-02T13:02:23.379Z,14.17
2024-03-02T13:04:59.015Z,14.63
2024-03-02T13:07:32.282Z,14.50
2024-03-02T13:10:01.109Z,15.60
2024-03-02T13:12:29.973Z,15.57
2024-03-02T13:15:01.385Z,13.43
2024-03-02T13:17:37.037Z,13.27
2024-03-02T13:20:12.942Z,14.40
2024-03-02T13:22:42.067Z,14.07
2024-03-02T13:25:16.284Z,13.93
2024-03-02T13:27:47.268Z,14.20
2024-03-02T13:30:17.583Z,15.73
2024-03-02T13:32:49.387Z,14.30
2024-03-02T13:35:22.980Z,15.37
2024-03-02T13:37:54.436Z,14.57
2024-03-02T13:40:24.749Z,14.33
2024-03-02T13:42:55.428Z,15.93
2024-03-02T13:45:27.153Z,13.80
2024-03-02T13:47:55.776Z,14.23
2024-03-02T13:50:24.511Z,14.00
2024-03-02T13:52:55.792Z,12.80
2024-03-02T13:55:25.035Z,11.13
2024-03-02T13:58:09.094Z,11.07
2024-03-02T14:00:40.768Z,11.20
2024-03-02T14:03:13.439Z,12.23
2024-03-02T14:05:42.049Z,10.90
2024-03-02T14:08:10.907Z,10.93
2024-03-02T14:10:41.408Z,11.60
2024-03-02T14:13:10.584Z,10.83
2024-03-02T14:15:44.024Z,9.67
2024-03-02T14:18:12.569Z,10.37
2024-03-02T14:20:45.661Z,10.47
2024-03-02T14:23:15.588Z,9.80
2024-03-02T14:25:44.307Z,9.73
2024-03-02T14:28:36.337Z,9.13
2024-03-02T14:31:03.238Z,9.90
2024-03-02T14:33:33.578Z,10.17
2024-03-02T14:36:02.358Z,10.80
2024-03-02T14:38:31.378Z,10.90
2024-03-02T14:41:01.155Z,10.27
2024-03-02T14:43:38.623Z,10.87
2024-03-02T14:46:11.010Z,10.90
2024-03-02T14:48:40.237Z,10.23
2024-03-02T14:51:12.184Z,10.17
2024-03-02T14:53:41.166Z,11.37
2024-03-02T14:56:10.160Z,10.67
2024-03-02T14:58:39.310Z,10.33
2024-03-02T15:01:10.446Z,10.57
2024-03-02T15:03:42.250Z,11.97
2024-03-02T15:06:11.386Z,11.73
2024-03-02T15:08:42.669Z,12.07
2024-03-02T15:11:12.063Z,11.13
2024-03-02T15:13:42.139Z,12.60
2024-03-02T15:16:13.732Z,12.80
2024-03-02T15:18:42.824Z,11.80
2024-03-02T15:21:16.578Z,12.67
2024-03-02T15:23:45.169Z,12.20
2024-03-02T15:26:14.450Z,11.97
2024-03-02T15:28:44.064Z,12.10
2024-03-02T15:31:14.222Z,12.17
2024-03-02T15:33:46.228Z,10.60
2024-03-02T15:36:15.265Z,10.40
2024-03-02T15:38:43.834Z,10.77
2024-03-02T15:41:12.497Z,11.67
2024-03-02T15:43:46.379Z,12.17
2024-03-02T15:46:16.548Z,12.43
2024-03-02T15:48:45.119Z,12.63
2024-03-02T15:51:13.771Z,12.67
2024-03-02T15:53:44.687Z,13.63
2024-03-02T15:56:15.278Z,14.23
2024-03-02T15:58:44.081Z,13.07
2024-03-02T16:01:13.137Z,14.53
2024-03-02T16:03:43.196Z,14.60
2024-03-02T16:06:11.745Z,13.40
2024-03-02T16:08:40.455Z,13.57
2024-03-02T16:11:09.098Z,14.33
2024-03-02T16:13:37.899Z,12.60
2024-03-02T16:16:06.764Z,14.53
2024-03-02T16:18:35.897Z,15.30
2024-03-02T16:21:09.622Z,15.00
2024-03-02T16:23:38.669Z,14.60
2024-03-02T16:26:07.590Z,14.70
2024-03-02T16:28:37.313Z,13.77
2024-03-02T16:31:06.064Z,14.97
2024-03-02T16:33:35.519Z,14.87
2024-03-02T16:36:04.224Z,14.97
2024-03-02T16:38:34.055Z,15.70
2024-03-02T16:41:02.676Z,16.63
2024-03-02T16:43:31.360Z,14.57
2024-03-02T16:46:02.209Z,15.20
2024-03-02T16:48:30.728Z,15.43
2024-03-02T16:51:00.095Z,15.23
2024-03-02T16:53:28.593Z,15.07
2024-03-02T16:56:04.823Z,14.87
2024-03-02T16:58:33.461Z,16.03
2024-03-02T17:01:02.222Z,14.63
2024-03-02T17:03:31.003Z,15.43
2024-03-02T17:05:59.766Z,15.10
2024-03-02T17:08:28.277Z,15.73
2024-03-02T17:10:57.159Z,15.47
2024-03-02T17:13:27.109Z,15.17
2024-03-02T17:15:55.993Z,15.70
2024-03-02T17:18:27.577Z,16.67
2024-03-02T17:20:56.384Z,16.67
2024-03-02T17:23:23.985Z,15.83
2024-03-02T17:25:52.950Z,16.63
2024-03-02T17:28:22.470Z,15.80
2024-03-02T17:30:52.924Z,17.17
2024-03-02T17:33:22.019Z,16.00
2024-03-02T17:35:51.551Z,15.83
2024-03-02T17:38:22.457Z,16.23
2024-03-02T17:40:51.331Z,17.57
2024-03-02T17:43:20.338Z,17.73
2024-03-02T17:45:49.615Z,17.30
2024-03-02T17:48:19.825Z,16.03
2024-03-02T17:50:48.593Z,16.60
2024-03-02T17:53:18.640Z,16.40
2024-03-02T17:55:50.640Z,17.33
2024-03-02T17:58:22.549Z,16.43
2024-03-02T18:01:12.445Z,16.83
2024-03-02T18:03:44.808Z,18.30
2024-03-02T18:06:14.562Z,18.20
2024-03-02T18:08:44.561Z,17.50
2024-03-02T18:11:13.698Z,18.30
2024-03-02T18:13:43.143Z,18.87
2024-03-02T18:16:21.400Z,18.30
2024-03-02T18:19:05.038Z,20.03
2024-03-02T18:21:38.537Z,18.73
2024-03-02T18:24:09.583Z,17.70
2024-03-02T18:26:38.370Z,17.27
2024-03-02T18:29:09.826Z,17.47
2024-03-02T18:31:38.803Z,18.50
2024-03-02T18:34:09.521Z,18.57
2024-03-02T18:36:39.205Z,17.97
2024-03-02T18:39:10.286Z,17.93
2024-03-02T18:41:48.916Z,17.90
2024-03-02T18:44:19.724Z,18.57
2024-03-02T18:46:52.339Z,17.80
2024-03-02T18:49:25.245Z,18.63
2024-03-02T18:51:55.933Z,18.50
2024-03-02T18:54:24.368Z,18.00
2024-03-02T18:56:52.738Z,18.43
2024-03-02T18:59:20.919Z,20.80
2024-03-02T19:01:50.256Z,21.10
2024-03-02T19:04:19.630Z,19.97
2024-03-02T19:06:49.078Z,20.47
2024-03-02T19:09:17.309Z,19.50
2024-03-02T19:11:45.840Z,18.43
2024-03-02T19:14:14.223Z,20.00
2024-03-02T19:16:44.659Z,19.80
2024-03-02T19:19:12.935Z,19.27
2024-03-02T19:21:41.377Z,21.33
2024-03-02T19:24:10.925Z,20.50
2024-03-02T19:26:39.235Z,19.93
2024-03-02T19:29:07.390Z,21.07
2024-03-02T19:31:35.916Z,19.13
2024-03-02T19:34:04.487Z,18.23
2024-03-02T19:36:33.081Z,21.03
2024-03-02T19:39:01.486Z,19.57
2024-03-02T19:41:30.933Z,19.57
2024-03-02T19:43:59.241Z,19.53
2024-03-02T19:46:27.548Z,19.97
2024-03-02T19:48:55.841Z,20.03
2024-03-02T19:51:26.280Z,20.30
2024-03-02T19:53:54.566Z,20.30
2024-03-02T19:56:22.868Z,21.67
2024-03-02T19:58:52.921Z,20.27
2024-03-02T20:01:21.320Z,21.03
2024-03-02T20:03:51.116Z,21.07
2024-03-02T20:06:21.121Z,20.23
2024-03-02T20:08:49.925Z,20.93
2024-03-02T20:11:18.092Z,20.40
2024-03-02T20:13:46.397Z,19.70
2024-03-02T20:16:20.378Z,21.03
2024-03-02T20:18:49.908Z,21.30
2024-03-02T20:21:18.320Z,20.27
2024-03-02T20:23:46.698Z,20.80
2024-03-02T20:26:15.075Z,20.63
2024-03-02T20:28:45.360Z,21.20
2024-03-02T20:31:15.109Z,22.13
2024-03-02T20:33:44.762Z,20.87
2024-03-02T20:36:15.285Z,21.57
2024-03-02T20:38:43.677Z,21.43
2024-03-02T20:41:16.744Z,22.97
2024-03-02T20:43:45.136Z,23.20
2024-03-02T20:46:13.719Z,21.93
2024-03-02T20:48:42.562Z,21.00
2024-03-02T20:51:12.020Z,21.23
2024-03-02T20:53:40.030Z,22.90
2024-03-02T20:56:08.591Z,24.53
2024-03-02T20:58:37.069Z,23.03
2024-03-02T21:01:06.615Z,21.57
2024-03-02T21:03:38.747Z,20.83
2024-03-02T21:06:07.750Z,20.87
2024-03-02T21:08:39.255Z,22.47
2024-03-02T21:11:08.354Z,21.07
2024-03-02T21:13:37.825Z,21.10
2024-03-02T21:19:19.498Z,21.37
2024-03-02T21:22:19.859Z,21.77
2024-03-02T21:25:05.469Z,20.70
2024-03-02T21:27:50.338Z,22.37
2024-03-02T21:30:37.023Z,22.13
2024-03-02T21:33:19.662Z,20.77
2024-03-02T21:39:05.173Z,23.33
2024-03-02T21:41:51.715Z,21.87
2024-03-02T21:44:26.486Z,20.13
2024-03-02T21:46:55.569Z,23.27
2024-03-02T21:49:31.295Z,21.83
2024-03-02T21:52:02.708Z,21.27
2024-03-02T21:54:39.072Z,21.87
2024-03-02T21:57:21.076Z,21.17
2024-03-02T21:59:54.043Z,21.90
2024-03-02T22:02:25.846Z,22.23
2024-03-02T22:04:54.742Z,21.43
2024-03-02T22:07:39.533Z,21.50
2024-03-02T22:10:11.609Z,21.43
2024-03-02T22:12:43.731Z,21.63
2024-03-02T22:15:17.363Z,22.73
2024-03-02T22:17:50.884Z,21.90
2024-03-02T22:20:19.831Z,22.13
2024-03-02T22:23:06.661Z,22.70
2024-03-02T22:25:40.570Z,22.27
2024-03-02T22:28:25.000Z,21.30
2024-03-02T22:30:59.504Z,22.57
2024-03-02T22:33:44.608Z,21.63
2024-03-02T22:36:29.269Z,21.57
2024-03-02T22:39:03.567Z,21.07
2024-03-02T22:41:39.295Z,23.30
2024-03-02T22:44:27.763Z,21.80
2024-03-02T22:47:03.624Z,22.83
2024-03-02T22:49:40.213Z,22.57
2024-03-02T22:52:16.013Z,22.30
2024-03-02T22:54:55.041Z,21.20
2024-03-02T22:57:34.654Z,20.63
2024-03-02T23:00:16.572Z,20.03
2024-03-02T23:02:51.310Z,20.97
2024-03-02T23:05:39.795Z,22.13
2024-03-02T23:08:10.608Z,22.00
2024-03-02T23:10:41.017Z,22.57
2024-03-02T23:13:10.048Z,22.37
2024-03-02T23:15:46.505Z,20.87
2024-03-02T23:18:25.685Z,21.53
2024-03-02T23:21:00.400Z,22.53
2024-03-02T23:23:38.939Z,20.33
2024-03-02T23:26:16.004Z,21.40
2024-03-02T23:28:50.525Z,20.77
2024-03-02T23:31:26.168Z,21.00
2024-03-02T23:34:01.602Z,20.77
2024-03-02T23:36:40.174Z,21.33
2024-03-02T23:39:11.909Z,20.43
2024-03-02T23:41:48.472Z,22.77
2024-03-02T23:44:17.963Z,21.07
2024-03-02T23:46:56.879Z,20.03
2024-03-02T23:49:34.201Z,20.60
2024-03-02T23:52:05.745Z,21.07
2024-03-02T23:54:41.207Z,20.23
2024-03-02T23:57:15.296Z,20.87
2024-03-02T23:59:44.544Z,22.37
